sensor_id;sensor_type;location;lat;lon;timestamp;pressure;altitude;pressure_sealevel;temperature;humidity
61742;BME280;47650;49.848;9.620;2022-07-29T00:00:12;99500.56;;;20.55;39.48
61742;BME280;47650;49.848;9.620;2022-07-29T00:02:38;99493.91;;;20.57;39.26
61742;BME280;47650;49.848;9.620;2022-07-29T00:05:04;99492.66;;;20.60;39.39
61742;BME280;47650;49.848;9.620;2022-07-29T00:07:30;99449.22;;;20.43;39.04
61742;BME280;47650;49.848;9.620;2022-07-29T00:09:55;99457.28;;;20.50;39.28
61742;BME280;47650;49.848;9.620;2022-07-29T00:12:22;99485.59;;;20.72;38.78
61742;BME280;47650;49.848;9.620;2022-07-29T00:14:48;99492.63;;;20.80;38.77
61742;BME280;47650;49.848;9.620;2022-07-29T00:17:15;99475.19;;;20.76;38.45
61742;BME280;47650;49.848;9.620;2022-07-29T00:19:40;99476.84;;;20.83;38.31
61742;BME280;47650;49.848;9.620;2022-07-29T00:22:06;99470.56;;;20.90;38.31
61742;BME280;47650;49.848;9.620;2022-07-29T00:24:31;99470.56;;;20.90;38.41
61742;BME280;47650;49.848;9.620;2022-07-29T00:26:57;99466.63;;;20.92;38.53
61742;BME280;47650;49.848;9.620;2022-07-29T00:29:22;99463.53;;;20.89;38.28
61742;BME280;47650;49.848;9.620;2022-07-29T00:31:48;99429.44;;;20.69;38.21
61742;BME280;47650;49.848;9.620;2022-07-29T00:34:13;99462.47;;;20.90;38.09
61742;BME280;47650;49.848;9.620;2022-07-29T00:36:59;99465.19;;;20.90;38.25
61742;BME280;47650;49.848;9.620;2022-07-29T00:39:24;99466.25;;;20.89;38.39
61742;BME280;47650;49.848;9.620;2022-07-29T00:41:50;99468.94;;;20.89;38.54
61742;BME280;47650;49.848;9.620;2022-07-29T00:44:15;99461.06;;;20.87;38.46
61742;BME280;47650;49.848;9.620;2022-07-29T00:46:42;99457.75;;;20.85;38.56
61742;BME280;47650;49.848;9.620;2022-07-29T00:49:07;99423.44;;;20.67;38.54
61742;BME280;47650;49.848;9.620;2022-07-29T00:51:35;99440.59;;;20.73;38.52
61742;BME280;47650;49.848;9.620;2022-07-29T00:54:03;99459.63;;;20.78;38.61
61742;BME280;47650;49.848;9.620;2022-07-29T00:56:32;99458.22;;;20.75;39.07
61742;BME280;47650;49.848;9.620;2022-07-29T00:59:04;99454.06;;;20.73;39.19
61742;BME280;47650;49.848;9.620;2022-07-29T01:01:29;99453.69;;;20.69;39.56
61742;BME280;47650;49.848;9.620;2022-07-29T01:03:54;99454.34;;;20.64;39.79
61742;BME280;47650;49.848;9.620;2022-07-29T01:06:20;99424.56;;;20.46;39.83
61742;BME280;47650;49.848;9.620;2022-07-29T01:08:47;99445.41;;;20.57;39.64
61742;BME280;47650;49.848;9.620;2022-07-29T01:11:16;99443.38;;;20.53;39.41
61742;BME280;47650;49.848;9.620;2022-07-29T01:13:43;99449.97;;;20.57;39.55
61742;BME280;47650;49.848;9.620;2022-07-29T01:16:21;99440.28;;;20.56;39.80
61742;BME280;47650;49.848;9.620;2022-07-29T01:18:56;99447.94;;;20.52;40.03
61742;BME280;47650;49.848;9.620;2022-07-29T01:24:40;99437.22;;;20.45;40.67
61742;BME280;47650;49.848;9.620;2022-07-29T01:27:14;99442.41;;;20.40;40.67
61742;BME280;47650;49.848;9.620;2022-07-29T01:29:49;99405.00;;;20.12;40.61
61742;BME280;47650;49.848;9.620;2022-07-29T01:32:20;99434.56;;;20.32;40.13
61742;BME280;47650;49.848;9.620;2022-07-29T01:34:54;99432.09;;;20.31;40.06
61742;BME280;47650;49.848;9.620;2022-07-29T01:37:24;99431.25;;;20.30;39.80
61742;BME280;47650;49.848;9.620;2022-07-29T01:39:55;99436.03;;;20.28;40.21
61742;BME280;47650;49.848;9.620;2022-07-29T01:42:43;99428.19;;;20.26;40.64
61742;BME280;47650;49.848;9.620;2022-07-29T01:45:20;99427.13;;;20.21;40.45
61742;BME280;47650;49.848;9.620;2022-07-29T01:48:10;99420.94;;;20.14;40.83
61742;BME280;47650;49.848;9.620;2022-07-29T01:50:57;99418.94;;;20.02;41.03
61742;BME280;47650;49.848;9.620;2022-07-29T01:53:54;99420.38;;;19.98;40.96
61742;BME280;47650;49.848;9.620;2022-07-29T01:56:26;99424.97;;;19.91;40.88
61742;BME280;47650;49.848;9.620;2022-07-29T01:58:55;99424.16;;;19.84;40.57
61742;BME280;47650;49.848;9.620;2022-07-29T02:01:23;99436.56;;;19.85;40.68
61742;BME280;47650;49.848;9.620;2022-07-29T02:03:50;99434.91;;;19.84;40.77
61742;BME280;47650;49.848;9.620;2022-07-29T02:06:19;99430.34;;;19.78;41.09
61742;BME280;47650;49.848;9.620;2022-07-29T02:08:46;99431.78;;;19.73;40.85
61742;BME280;47650;49.848;9.620;2022-07-29T02:11:12;99417.53;;;19.53;41.32
61742;BME280;47650;49.848;9.620;2022-07-29T02:13:38;99401.84;;;19.37;41.49
61742;BME280;47650;49.848;9.620;2022-07-29T02:16:06;99437.41;;;19.52;41.77
61742;BME280;47650;49.848;9.620;2022-07-29T02:18:36;99432.84;;;19.46;41.61
61742;BME280;47650;49.848;9.620;2022-07-29T02:21:03;99436.38;;;19.40;41.77
61742;BME280;47650;49.848;9.620;2022-07-29T02:23:30;99428.72;;;19.37;41.89
61742;BME280;47650;49.848;9.620;2022-07-29T02:25:58;99415.91;;;19.25;41.69
61742;BME280;47650;49.848;9.620;2022-07-29T02:28:27;99433.06;;;19.31;41.71
61742;BME280;47650;49.848;9.620;2022-07-29T02:30:59;99434.31;;;19.35;41.60
61742;BME280;47650;49.848;9.620;2022-07-29T02:33:29;99444.44;;;19.40;41.95
61742;BME280;47650;49.848;9.620;2022-07-29T02:35:55;99434.94;;;19.44;41.30
61742;BME280;47650;49.848;9.620;2022-07-29T02:38:22;99439.66;;;19.55;41.38
61742;BME280;47650;49.848;9.620;2022-07-29T02:41:11;99435.53;;;19.59;41.10
61742;BME280;47650;49.848;9.620;2022-07-29T02:43:39;99423.31;;;19.57;40.96
61742;BME280;47650;49.848;9.620;2022-07-29T02:46:08;99432.00;;;19.65;40.83
61742;BME280;47650;49.848;9.620;2022-07-29T02:48:48;99441.75;;;19.66;40.72
61742;BME280;47650;49.848;9.620;2022-07-29T02:51:27;99426.41;;;19.60;40.56
61742;BME280;47650;49.848;9.620;2022-07-29T02:53:56;99419.81;;;19.63;40.53
61742;BME280;47650;49.848;9.620;2022-07-29T02:56:27;99437.38;;;19.72;40.82
61742;BME280;47650;49.848;9.620;2022-07-29T02:58:56;99442.16;;;19.70;40.76
61742;BME280;47650;49.848;9.620;2022-07-29T03:01:23;99441.94;;;19.71;40.58
61742;BME280;47650;49.848;9.620;2022-07-29T03:03:52;99441.56;;;19.75;40.82
61742;BME280;47650;49.848;9.620;2022-07-29T03:06:20;99437.16;;;19.73;40.81
61742;BME280;47650;49.848;9.620;2022-07-29T03:08:47;99411.34;;;19.59;40.68
61742;BME280;47650;49.848;9.620;2022-07-29T03:11:14;99436.38;;;19.80;40.98
61742;BME280;47650;49.848;9.620;2022-07-29T03:13:41;99391.31;;;19.42;40.99
61742;BME280;47650;49.848;9.620;2022-07-29T03:16:07;99437.78;;;19.89;40.70
61742;BME280;47650;49.848;9.620;2022-07-29T03:18:34;99397.88;;;19.66;40.21
61742;BME280;47650;49.848;9.620;2022-07-29T03:21:00;99438.00;;;19.94;40.61
61742;BME280;47650;49.848;9.620;2022-07-29T03:23:25;99436.13;;;19.95;40.96
61742;BME280;47650;49.848;9.620;2022-07-29T03:25:54;99432.41;;;19.96;41.12
61742;BME280;47650;49.848;9.620;2022-07-29T03:28:26;99437.38;;;19.92;41.30
61742;BME280;47650;49.848;9.620;2022-07-29T03:30:52;99436.53;;;19.98;41.28
61742;BME280;47650;49.848;9.620;2022-07-29T03:33:18;99435.50;;;19.99;41.21
61742;BME280;47650;49.848;9.620;2022-07-29T03:35:45;99441.50;;;20.01;41.08
61742;BME280;47650;49.848;9.620;2022-07-29T03:38:10;99432.78;;;20.06;41.46
61742;BME280;47650;49.848;9.620;2022-07-29T03:40:49;99429.91;;;20.07;41.34
61742;BME280;47650;49.848;9.620;2022-07-29T03:43:18;99436.91;;;20.08;41.21
61742;BME280;47650;49.848;9.620;2022-07-29T03:45:47;99431.75;;;20.07;41.11
61742;BME280;47650;49.848;9.620;2022-07-29T03:48:16;99440.66;;;20.14;41.17
61742;BME280;47650;49.848;9.620;2022-07-29T03:50:42;99424.94;;;20.04;41.44
61742;BME280;47650;49.848;9.620;2022-07-29T03:53:08;99437.72;;;20.16;40.68
61742;BME280;47650;49.848;9.620;2022-07-29T03:55:41;99426.94;;;20.16;40.72
61742;BME280;47650;49.848;9.620;2022-07-29T03:58:08;99432.31;;;20.22;40.76
61742;BME280;47650;49.848;9.620;2022-07-29T04:00:36;99406.69;;;20.06;41.08
61742;BME280;47650;49.848;9.620;2022-07-29T04:03:03;99434.38;;;20.27;41.45
61742;BME280;47650;49.848;9.620;2022-07-29T04:05:29;99422.38;;;20.23;41.32
61742;BME280;47650;49.848;9.620;2022-07-29T04:07:54;99434.38;;;20.27;41.32
61742;BME280;47650;49.848;9.620;2022-07-29T04:10:19;99439.16;;;20.25;41.41
61742;BME280;47650;49.848;9.620;2022-07-29T04:12:45;99431.31;;;20.17;41.30
61742;BME280;47650;49.848;9.620;2022-07-29T04:15:10;99440.84;;;20.19;41.42
61742;BME280;47650;49.848;9.620;2022-07-29T04:17:38;99439.38;;;20.17;41.39
61742;BME280;47650;49.848;9.620;2022-07-29T04:20:04;99437.72;;;20.16;41.47
61742;BME280;47650;49.848;9.620;2022-07-29T04:22:29;99445.19;;;20.14;41.65
61742;BME280;47650;49.848;9.620;2022-07-29T04:24:56;99440.44;;;20.09;41.66
61742;BME280;47650;49.848;9.620;2022-07-29T04:27:21;99442.31;;;20.02;42.04
61742;BME280;47650;49.848;9.620;2022-07-29T04:29:47;99437.41;;;19.85;42.13
61742;BME280;47650;49.848;9.620;2022-07-29T04:32:14;99454.75;;;19.83;41.92
61742;BME280;47650;49.848;9.620;2022-07-29T04:34:40;99444.44;;;19.80;42.48
61742;BME280;47650;49.848;9.620;2022-07-29T04:37:06;99442.56;;;19.73;42.52
61742;BME280;47650;49.848;9.620;2022-07-29T04:39:31;99444.44;;;19.66;42.61
61742;BME280;47650;49.848;9.620;2022-07-29T04:41:56;99435.53;;;19.66;42.67
61742;BME280;47650;49.848;9.620;2022-07-29T04:44:22;99440.50;;;19.62;42.93
61742;BME280;47650;49.848;9.620;2022-07-29T04:46:47;99400.59;;;19.32;43.22
61742;BME280;47650;49.848;9.620;2022-07-29T04:49:12;99436.97;;;19.55;43.11
61742;BME280;47650;49.848;9.620;2022-07-29T04:51:38;99435.34;;;19.54;43.23
61742;BME280;47650;49.848;9.620;2022-07-29T04:54:04;99433.25;;;19.56;43.61
61742;BME280;47650;49.848;9.620;2022-07-29T04:56:30;99438.63;;;19.56;43.36
61742;BME280;47650;49.848;9.620;2022-07-29T04:58:55;99433.47;;;19.61;43.52
61742;BME280;47650;49.848;9.620;2022-07-29T05:01:20;99356.56;;;19.20;43.17
61742;BME280;47650;49.848;9.620;2022-07-29T05:03:46;99431.59;;;19.68;42.98
61742;BME280;47650;49.848;9.620;2022-07-29T05:06:12;99428.50;;;19.78;42.78
61742;BME280;47650;49.848;9.620;2022-07-29T05:08:37;99425.81;;;19.85;42.76
61742;BME280;47650;49.848;9.620;2022-07-29T05:11:03;99431.38;;;19.90;42.63
61742;BME280;47650;49.848;9.620;2022-07-29T05:13:29;99428.66;;;20.03;42.93
61742;BME280;47650;49.848;9.620;2022-07-29T05:15:54;99433.19;;;20.09;43.06
61742;BME280;47650;49.848;9.620;2022-07-29T05:18:20;99431.13;;;20.12;42.74
61742;BME280;47650;49.848;9.620;2022-07-29T05:20:45;99429.63;;;20.22;42.59
61742;BME280;47650;49.848;9.620;2022-07-29T05:23:10;99443.28;;;20.21;42.25
61742;BME280;47650;49.848;9.620;2022-07-29T05:25:38;99444.75;;;20.17;42.15
61742;BME280;47650;49.848;9.620;2022-07-29T05:28:03;99434.81;;;20.17;41.50
61742;BME280;47650;49.848;9.620;2022-07-29T05:30:31;99438.06;;;20.33;41.52
61742;BME280;47650;49.848;9.620;2022-07-29T05:32:56;99429.00;;;20.27;41.72
61742;BME280;47650;49.848;9.620;2022-07-29T05:35:22;99413.22;;;20.31;41.65
61742;BME280;47650;49.848;9.620;2022-07-29T05:37:47;99440.25;;;20.62;41.11
61742;BME280;47650;49.848;9.620;2022-07-29T05:40:12;99442.06;;;20.75;41.45
61742;BME280;47650;49.848;9.620;2022-07-29T05:42:38;99429.19;;;20.77;41.56
61742;BME280;47650;49.848;9.620;2022-07-29T05:45:03;99419.56;;;20.88;41.29
61742;BME280;47650;49.848;9.620;2022-07-29T05:47:30;99437.25;;;21.09;41.37
61742;BME280;47650;49.848;9.620;2022-07-29T05:49:55;99428.06;;;21.23;40.84
61742;BME280;47650;49.848;9.620;2022-07-29T05:52:21;99406.91;;;21.20;40.85
61742;BME280;47650;49.848;9.620;2022-07-29T05:54:47;99414.59;;;21.49;40.22
61742;BME280;47650;49.848;9.620;2022-07-29T05:57:23;99441.94;;;21.96;38.85
61742;BME280;47650;49.848;9.620;2022-07-29T05:59:49;99394.25;;;21.90;38.69
61742;BME280;47650;49.848;9.620;2022-07-29T06:02:16;99444.66;;;22.51;37.36
61742;BME280;47650;49.848;9.620;2022-07-29T06:04:42;99446.47;;;22.69;36.90
61742;BME280;47650;49.848;9.620;2022-07-29T06:07:08;99417.16;;;22.85;36.63
61742;BME280;47650;49.848;9.620;2022-07-29T06:09:33;99433.31;;;23.45;35.56
61742;BME280;47650;49.848;9.620;2022-07-29T06:11:59;99427.78;;;23.99;35.00
61742;BME280;47650;49.848;9.620;2022-07-29T06:14:25;99431.38;;;24.29;33.78
61742;BME280;47650;49.848;9.620;2022-07-29T06:16:51;99428.03;;;24.79;33.92
61742;BME280;47650;49.848;9.620;2022-07-29T06:19:19;99432.00;;;24.88;33.75
61742;BME280;47650;49.848;9.620;2022-07-29T06:21:45;99428.63;;;24.98;33.58
61742;BME280;47650;49.848;9.620;2022-07-29T06:24:12;99431.22;;;24.76;33.25
61742;BME280;47650;49.848;9.620;2022-07-29T06:26:40;99441.38;;;24.28;34.28
61742;BME280;47650;49.848;9.620;2022-07-29T06:29:06;99418.47;;;23.60;35.32
61742;BME280;47650;49.848;9.620;2022-07-29T06:31:33;99439.38;;;24.24;33.79
61742;BME280;47650;49.848;9.620;2022-07-29T06:33:59;99431.59;;;24.80;33.56
61742;BME280;47650;49.848;9.620;2022-07-29T06:36:25;99394.09;;;24.76;32.07
61742;BME280;47650;49.848;9.620;2022-07-29T06:38:51;99392.63;;;25.31;31.40
61742;BME280;47650;49.848;9.620;2022-07-29T06:41:17;99413.06;;;25.95;29.88
61742;BME280;47650;49.848;9.620;2022-07-29T06:43:44;99410.50;;;26.05;29.60
61742;BME280;47650;49.848;9.620;2022-07-29T06:46:19;99410.06;;;25.75;29.44
61742;BME280;47650;49.848;9.620;2022-07-29T06:48:45;99410.81;;;26.09;29.19
61742;BME280;47650;49.848;9.620;2022-07-29T06:51:11;99403.16;;;26.28;28.98
61742;BME280;47650;49.848;9.620;2022-07-29T06:53:37;99402.94;;;26.57;28.84
61742;BME280;47650;49.848;9.620;2022-07-29T06:56:06;99399.91;;;26.75;28.11
61742;BME280;47650;49.848;9.620;2022-07-29T06:58:33;99405.13;;;26.33;28.68
61742;BME280;47650;49.848;9.620;2022-07-29T07:01:01;99396.53;;;26.41;29.05
61742;BME280;47650;49.848;9.620;2022-07-29T07:03:27;99406.50;;;26.85;28.34
61742;BME280;47650;49.848;9.620;2022-07-29T07:05:53;99400.94;;;27.29;27.62
61742;BME280;47650;49.848;9.620;2022-07-29T07:08:25;99406.69;;;27.32;28.03
61742;BME280;47650;49.848;9.620;2022-07-29T07:10:58;99407.78;;;27.74;27.28
61742;BME280;47650;49.848;9.620;2022-07-29T07:13:33;99408.50;;;28.02;26.98
61742;BME280;47650;49.848;9.620;2022-07-29T07:16:00;99402.66;;;27.40;27.69
61742;BME280;47650;49.848;9.620;2022-07-29T07:18:26;99417.69;;;27.53;27.54
61742;BME280;47650;49.848;9.620;2022-07-29T07:20:52;99413.47;;;27.67;26.90
61742;BME280;47650;49.848;9.620;2022-07-29T07:23:17;99389.81;;;27.03;28.46
61742;BME280;47650;49.848;9.620;2022-07-29T07:25:43;99419.09;;;27.23;28.79
61742;BME280;47650;49.848;9.620;2022-07-29T07:28:10;99414.59;;;27.39;29.25
61742;BME280;47650;49.848;9.620;2022-07-29T07:30:36;99423.34;;;25.93;30.98
61742;BME280;47650;49.848;9.620;2022-07-29T07:33:02;99433.38;;;26.10;30.85
61742;BME280;47650;49.848;9.620;2022-07-29T07:35:27;99430.91;;;26.08;31.64
61742;BME280;47650;49.848;9.620;2022-07-29T07:37:54;99428.31;;;26.40;31.26
61742;BME280;47650;49.848;9.620;2022-07-29T07:40:20;99430.00;;;26.02;32.13
61742;BME280;47650;49.848;9.620;2022-07-29T07:42:45;99424.72;;;26.13;32.27
61742;BME280;47650;49.848;9.620;2022-07-29T07:45:10;99408.88;;;26.54;31.64
61742;BME280;47650;49.848;9.620;2022-07-29T07:47:38;99421.19;;;27.43;30.23
61742;BME280;47650;49.848;9.620;2022-07-29T07:50:08;99420.38;;;27.90;29.27
61742;BME280;47650;49.848;9.620;2022-07-29T07:52:33;99421.16;;;28.33;29.12
61742;BME280;47650;49.848;9.620;2022-07-29T07:54:59;99422.75;;;28.24;28.84
61742;BME280;47650;49.848;9.620;2022-07-29T07:57:25;99420.63;;;28.37;27.87
61742;BME280;47650;49.848;9.620;2022-07-29T07:59:50;99422.41;;;28.89;27.51
61742;BME280;47650;49.848;9.620;2022-07-29T08:02:17;99431.50;;;28.31;28.03
61742;BME280;47650;49.848;9.620;2022-07-29T08:04:43;99416.28;;;26.80;29.66
61742;BME280;47650;49.848;9.620;2022-07-29T08:07:08;99435.84;;;27.37;29.78
61742;BME280;47650;49.848;9.620;2022-07-29T08:09:36;99436.44;;;27.44;29.29
61742;BME280;47650;49.848;9.620;2022-07-29T08:12:02;99431.28;;;27.15;29.45
61742;BME280;47650;49.848;9.620;2022-07-29T08:14:29;99430.03;;;27.61;28.80
61742;BME280;47650;49.848;9.620;2022-07-29T08:16:55;99426.06;;;26.81;29.90
61742;BME280;47650;49.848;9.620;2022-07-29T08:19:20;99429.72;;;26.65;30.09
61742;BME280;47650;49.848;9.620;2022-07-29T08:21:45;99421.16;;;27.11;29.74
61742;BME280;47650;49.848;9.620;2022-07-29T08:24:11;99433.22;;;26.88;29.82
61742;BME280;47650;49.848;9.620;2022-07-29T08:26:56;99426.16;;;27.51;29.30
61742;BME280;47650;49.848;9.620;2022-07-29T08:29:21;99425.72;;;28.12;28.82
61742;BME280;47650;49.848;9.620;2022-07-29T08:31:46;99410.31;;;28.54;28.35
61742;BME280;47650;49.848;9.620;2022-07-29T08:34:11;99420.50;;;29.10;26.43
61742;BME280;47650;49.848;9.620;2022-07-29T08:36:44;99388.25;;;27.45;27.92
61742;BME280;47650;49.848;9.620;2022-07-29T08:39:09;99423.25;;;29.56;26.52
61742;BME280;47650;49.848;9.620;2022-07-29T08:41:35;99391.03;;;28.97;26.64
61742;BME280;47650;49.848;9.620;2022-07-29T08:44:00;99423.53;;;28.14;27.61
61742;BME280;47650;49.848;9.620;2022-07-29T08:46:26;99418.50;;;28.54;27.47
61742;BME280;47650;49.848;9.620;2022-07-29T08:48:52;99424.69;;;27.76;28.75
61742;BME280;47650;49.848;9.620;2022-07-29T08:51:19;99409.81;;;29.91;26.16
61742;BME280;47650;49.848;9.620;2022-07-29T08:53:46;99413.63;;;29.95;25.33
61742;BME280;47650;49.848;9.620;2022-07-29T08:56:16;99408.50;;;31.86;23.28
61742;BME280;47650;49.848;9.620;2022-07-29T08:58:43;99408.63;;;32.24;22.46
61742;BME280;47650;49.848;9.620;2022-07-29T09:01:10;99407.22;;;31.15;23.79
61742;BME280;47650;49.848;9.620;2022-07-29T09:03:36;99400.81;;;32.74;22.64
61742;BME280;47650;49.848;9.620;2022-07-29T09:06:04;99402.13;;;33.76;21.46
61742;BME280;47650;49.848;9.620;2022-07-29T09:08:32;99409.25;;;33.90;20.48
61742;BME280;47650;49.848;9.620;2022-07-29T09:10:57;99412.38;;;31.21;23.27
61742;BME280;47650;49.848;9.620;2022-07-29T09:13:25;99402.81;;;30.79;24.08
61742;BME280;47650;49.848;9.620;2022-07-29T09:15:50;99409.16;;;30.25;25.26
61742;BME280;47650;49.848;9.620;2022-07-29T09:21:00;99402.75;;;30.89;24.33
61742;BME280;47650;49.848;9.620;2022-07-29T09:24:08;99410.16;;;30.94;24.41
61742;BME280;47650;49.848;9.620;2022-07-29T09:26:36;99395.81;;;31.90;23.66
61742;BME280;47650;49.848;9.620;2022-07-29T09:31:50;99390.38;;;32.33;22.65
61742;BME280;47650;49.848;9.620;2022-07-29T09:34:20;99397.91;;;32.66;22.48
61742;BME280;47650;49.848;9.620;2022-07-29T09:36:48;99391.56;;;32.84;22.33
61742;BME280;47650;49.848;9.620;2022-07-29T09:39:33;99369.88;;;32.69;22.06
61742;BME280;47650;49.848;9.620;2022-07-29T09:42:02;99391.75;;;31.63;23.47
61742;BME280;47650;49.848;9.620;2022-07-29T09:44:41;99387.84;;;32.18;22.80
61742;BME280;47650;49.848;9.620;2022-07-29T09:47:09;99388.47;;;31.32;23.93
61742;BME280;47650;49.848;9.620;2022-07-29T09:49:49;99387.78;;;32.99;22.25
61742;BME280;47650;49.848;9.620;2022-07-29T09:52:16;99356.78;;;32.79;22.12
61742;BME280;47650;49.848;9.620;2022-07-29T09:54:42;99350.59;;;34.09;20.69
61742;BME280;47650;49.848;9.620;2022-07-29T09:57:09;99373.91;;;35.92;19.60
61742;BME280;47650;49.848;9.620;2022-07-29T09:59:38;99364.72;;;38.68;15.85
61742;BME280;47650;49.848;9.620;2022-07-29T10:02:18;99360.22;;;35.79;18.40
61742;BME280;47650;49.848;9.620;2022-07-29T10:04:45;99348.97;;;34.81;20.10
61742;BME280;47650;49.848;9.620;2022-07-29T10:07:10;99378.38;;;36.46;18.24
61742;BME280;47650;49.848;9.620;2022-07-29T10:09:52;99349.75;;;37.68;16.97
61742;BME280;47650;49.848;9.620;2022-07-29T10:12:19;99361.00;;;40.30;14.47
61742;BME280;47650;49.848;9.620;2022-07-29T10:14:44;99355.78;;;40.53;14.81
61742;BME280;47650;49.848;9.620;2022-07-29T10:17:10;99357.53;;;43.11;13.04
61742;BME280;47650;49.848;9.620;2022-07-29T10:19:38;99353.09;;;45.41;10.82
61742;BME280;47650;49.848;9.620;2022-07-29T10:22:07;99345.84;;;46.73;9.54
61742;BME280;47650;49.848;9.620;2022-07-29T10:24:34;99346.59;;;48.25;8.79
61742;BME280;47650;49.848;9.620;2022-07-29T10:27:01;99355.59;;;47.37;9.28
61742;BME280;47650;49.848;9.620;2022-07-29T10:29:27;99340.47;;;48.55;8.22
61742;BME280;47650;49.848;9.620;2022-07-29T10:32:19;99336.66;;;49.88;7.53
61742;BME280;47650;49.848;9.620;2022-07-29T10:40:18;99326.81;;;51.20;6.68
61742;BME280;47650;49.848;9.620;2022-07-29T10:43:27;99333.16;;;49.28;7.77
61742;BME280;47650;49.848;9.620;2022-07-29T10:45:59;99315.69;;;46.45;9.42
61742;BME280;47650;49.848;9.620;2022-07-29T10:48:26;99309.00;;;44.53;10.62
61742;BME280;47650;49.848;9.620;2022-07-29T10:50:53;99328.97;;;43.41;11.41
61742;BME280;47650;49.848;9.620;2022-07-29T10:53:23;99317.88;;;43.44;11.72
61742;BME280;47650;49.848;9.620;2022-07-29T10:55:50;99334.06;;;44.45;11.13
61742;BME280;47650;49.848;9.620;2022-07-29T10:58:21;99334.53;;;44.51;10.75
61742;BME280;47650;49.848;9.620;2022-07-29T11:00:54;99313.78;;;43.65;11.46
61742;BME280;47650;49.848;9.620;2022-07-29T11:03:43;99333.78;;;46.62;9.56
61742;BME280;47650;49.848;9.620;2022-07-29T11:06:12;99327.91;;;47.42;9.03
61742;BME280;47650;49.848;9.620;2022-07-29T11:08:37;99321.69;;;48.37;8.39
61742;BME280;47650;49.848;9.620;2022-07-29T11:13:47;99320.66;;;47.41;9.18
61742;BME280;47650;49.848;9.620;2022-07-29T11:16:15;99307.59;;;49.11;8.41
61742;BME280;47650;49.848;9.620;2022-07-29T11:21:40;99331.16;;;41.91;12.74
61742;BME280;47650;49.848;9.620;2022-07-29T11:24:32;99320.31;;;45.46;10.42
61742;BME280;47650;49.848;9.620;2022-07-29T11:27:13;99306.88;;;48.15;8.83
61742;BME280;47650;49.848;9.620;2022-07-29T11:29:54;99309.19;;;46.12;10.14
61742;BME280;47650;49.848;9.620;2022-07-29T11:32:22;99312.97;;;47.96;8.74
61742;BME280;47650;49.848;9.620;2022-07-29T11:34:49;99291.88;;;48.54;8.57
61742;BME280;47650;49.848;9.620;2022-07-29T11:37:17;99301.69;;;49.78;7.83
61742;BME280;47650;49.848;9.620;2022-07-29T11:40:08;99284.59;;;50.85;7.32
61742;BME280;47650;49.848;9.620;2022-07-29T11:45:02;99297.03;;;47.28;9.70
61742;BME280;47650;49.848;9.620;2022-07-29T11:47:31;99284.88;;;47.92;9.14
61742;BME280;47650;49.848;9.620;2022-07-29T11:49:58;99290.97;;;45.80;10.37
61742;BME280;47650;49.848;9.620;2022-07-29T11:52:32;99272.91;;;47.59;9.30
61742;BME280;47650;49.848;9.620;2022-07-29T11:55:01;99276.19;;;45.84;10.34
61742;BME280;47650;49.848;9.620;2022-07-29T11:57:29;99264.38;;;49.29;8.30
61742;BME280;47650;49.848;9.620;2022-07-29T11:59:55;99265.69;;;50.58;7.46
61742;BME280;47650;49.848;9.620;2022-07-29T12:02:22;99262.03;;;51.56;7.07
61742;BME280;47650;49.848;9.620;2022-07-29T12:04:55;99243.78;;;50.08;7.83
61742;BME280;47650;49.848;9.620;2022-07-29T12:07:32;99257.22;;;52.50;6.73
61742;BME280;47650;49.848;9.620;2022-07-29T12:09:58;99259.91;;;50.93;7.35
61742;BME280;47650;49.848;9.620;2022-07-29T12:12:23;99259.66;;;47.81;9.47
61742;BME280;47650;49.848;9.620;2022-07-29T12:14:49;99264.22;;;45.94;10.55
61742;BME280;47650;49.848;9.620;2022-07-29T12:17:32;99282.59;;;43.09;13.04
61742;BME280;47650;49.848;9.620;2022-07-29T12:19:59;99296.28;;;41.46;14.59
61742;BME280;47650;49.848;9.620;2022-07-29T12:22:30;99293.50;;;40.13;15.34
61742;BME280;47650;49.848;9.620;2022-07-29T12:25:00;99290.97;;;38.76;16.37
61742;BME280;47650;49.848;9.620;2022-07-29T12:27:26;99301.13;;;38.38;17.25
61742;BME280;47650;49.848;9.620;2022-07-29T12:30:12;99301.25;;;37.61;17.85
61742;BME280;47650;49.848;9.620;2022-07-29T12:32:46;99312.81;;;37.25;18.40
61742;BME280;47650;49.848;9.620;2022-07-29T12:35:16;99289.50;;;36.87;18.35
61742;BME280;47650;49.848;9.620;2022-07-29T12:37:50;99279.97;;;36.15;19.03
61742;BME280;47650;49.848;9.620;2022-07-29T12:40:17;99295.19;;;35.86;19.74
61742;BME280;47650;49.848;9.620;2022-07-29T12:43:09;99293.53;;;35.85;19.86
61742;BME280;47650;49.848;9.620;2022-07-29T12:45:36;99295.66;;;35.88;20.48
61742;BME280;47650;49.848;9.620;2022-07-29T12:48:03;99283.28;;;35.68;20.59
61742;BME280;47650;49.848;9.620;2022-07-29T12:50:29;99292.00;;;35.62;20.38
61742;BME280;47650;49.848;9.620;2022-07-29T12:52:54;99291.22;;;35.21;20.68
61742;BME280;47650;49.848;9.620;2022-07-29T12:55:43;99294.06;;;35.16;21.31
61742;BME280;47650;49.848;9.620;2022-07-29T12:58:09;99287.44;;;35.48;20.75
61742;BME280;47650;49.848;9.620;2022-07-29T13:00:34;99293.06;;;35.34;21.01
61742;BME280;47650;49.848;9.620;2022-07-29T13:02:59;99302.06;;;34.13;21.97
61742;BME280;47650;49.848;9.620;2022-07-29T13:05:44;99298.94;;;34.42;21.42
61742;BME280;47650;49.848;9.620;2022-07-29T13:08:14;99268.53;;;33.19;23.22
61742;BME280;47650;49.848;9.620;2022-07-29T13:10:40;99277.09;;;33.45;22.91
61742;BME280;47650;49.848;9.620;2022-07-29T13:13:10;99280.75;;;33.54;22.65
61742;BME280;47650;49.848;9.620;2022-07-29T13:15:38;99269.50;;;33.09;23.23
61742;BME280;47650;49.848;9.620;2022-07-29T13:18:05;99301.56;;;32.67;23.82
61742;BME280;47650;49.848;9.620;2022-07-29T13:20:31;99294.28;;;32.38;24.29
61742;BME280;47650;49.848;9.620;2022-07-29T13:22:57;99301.22;;;32.88;23.98
61742;BME280;47650;49.848;9.620;2022-07-29T13:25:28;99295.63;;;32.22;25.07
61742;BME280;47650;49.848;9.620;2022-07-29T13:27:53;99300.81;;;31.08;28.43
61742;BME280;47650;49.848;9.620;2022-07-29T13:30:20;99291.94;;;31.16;28.89